createdAt,value
2023-06-15T00:00:12.739Z,3.40
2023-06-15T00:03:15.638Z,3.40
2023-06-15T00:06:18.422Z,3.30
2023-06-15T00:09:22.336Z,3.55
2023-06-15T00:12:24.972Z,3.47
2023-06-15T00:15:28.565Z,3.10
2023-06-15T00:18:31.476Z,3.07
2023-06-15T00:21:35.116Z,3.50
2023-06-15T00:24:39.045Z,3.27
2023-06-15T00:27:41.591Z,3.30
2023-06-15T00:30:44.151Z,4.03
2023-06-15T00:33:46.829Z,3.05
2023-06-15T00:36:49.532Z,2.95
2023-06-15T00:39:53.683Z,3.55
2023-06-15T00:42:56.294Z,3.67
2023-06-15T00:45:59.038Z,3.00
2023-06-15T00:49:01.779Z,3.45
2023-06-15T00:52:04.920Z,3.70
2023-06-15T00:55:13.215Z,3.05
2023-06-15T00:58:16.492Z,3.13
2023-06-15T01:01:19.481Z,2.65
2023-06-15T01:04:25.657Z,3.97
2023-06-15T01:07:29.119Z,3.20
2023-06-15T01:10:34.869Z,3.87
2023-06-15T01:13:39.948Z,3.17
2023-06-15T01:16:44.843Z,2.77
2023-06-15T01:19:58.599Z,3.40
2023-06-15T01:23:03.270Z,3.00
2023-06-15T01:26:08.582Z,2.90
2023-06-15T01:29:11.897Z,2.80
2023-06-15T01:35:17.514Z,2.47
2023-06-15T01:38:23.932Z,3.03
2023-06-15T01:41:29.024Z,3.23
2023-06-15T01:44:31.854Z,3.10
2023-06-15T01:47:34.660Z,2.83
2023-06-15T01:50:37.850Z,2.80
2023-06-15T01:53:40.535Z,3.30
2023-06-15T01:56:44.788Z,2.65
2023-06-15T01:59:47.666Z,3.40
2023-06-15T02:02:50.502Z,3.13
2023-06-15T02:05:53.037Z,3.38
2023-06-15T02:08:55.808Z,3.10
2023-06-15T02:12:00.160Z,3.08
2023-06-15T02:15:03.650Z,3.17
2023-06-15T02:18:13.102Z,2.70
2023-06-15T02:21:15.861Z,2.93
2023-06-15T02:24:19.460Z,2.83
2023-06-15T02:27:24.227Z,3.30
2023-06-15T02:30:27.185Z,2.90
2023-06-15T02:33:29.724Z,3.33
2023-06-15T02:36:32.339Z,2.85
2023-06-15T02:39:35.122Z,2.80
2023-06-15T02:42:39.615Z,3.53
2023-06-15T02:45:42.634Z,3.17
2023-06-15T02:48:45.502Z,2.97
2023-06-15T02:51:48.422Z,3.20
2023-06-15T02:54:51.151Z,3.17
2023-06-15T02:57:55.079Z,3.42
2023-06-15T03:00:57.744Z,2.80
2023-06-15T03:04:00.689Z,3.17
2023-06-15T03:07:04.971Z,3.40
2023-06-15T03:10:08.843Z,3.30
2023-06-15T03:13:13.314Z,3.03
2023-06-15T03:16:16.705Z,2.93
2023-06-15T03:19:19.686Z,3.33
2023-06-15T03:22:25.204Z,3.50
2023-06-15T03:25:30.761Z,3.10
2023-06-15T03:28:39.083Z,3.30
2023-06-15T03:31:42.850Z,3.63
2023-06-15T03:34:47.307Z,3.20
2023-06-15T03:37:50.612Z,3.20
2023-06-15T03:40:53.154Z,2.95
2023-06-15T03:43:56.993Z,3.17
2023-06-15T03:46:59.527Z,3.00
2023-06-15T03:50:03.002Z,2.90
2023-06-15T03:53:06.781Z,2.93
2023-06-15T03:56:09.410Z,3.70
2023-06-15T03:59:13.622Z,2.72
2023-06-15T04:02:16.466Z,2.90
2023-06-15T04:05:21.043Z,3.08
2023-06-15T04:08:24.589Z,3.20
2023-06-15T04:11:27.581Z,3.37
2023-06-15T04:14:32.362Z,3.03
2023-06-15T04:17:35.123Z,3.37
2023-06-15T04:20:38.671Z,3.58
2023-06-15T04:23:44.430Z,3.43
2023-06-15T04:26:47.433Z,3.63
2023-06-15T04:29:54.208Z,3.63
2023-06-15T04:33:00.982Z,3.23
2023-06-15T04:36:04.507Z,3.37
2023-06-15T04:39:07.252Z,3.30
2023-06-15T04:42:13.034Z,3.60
2023-06-15T04:45:17.712Z,3.50
2023-06-15T04:48:20.700Z,3.93
2023-06-15T04:51:23.324Z,3.40
2023-06-15T04:54:26.324Z,3.42
2023-06-15T04:57:30.004Z,3.40
2023-06-15T05:00:34.122Z,3.23
2023-06-15T05:03:36.876Z,3.67
2023-06-15T05:06:39.626Z,3.47
2023-06-15T05:09:43.206Z,3.15
2023-06-15T05:12:45.785Z,3.50
2023-06-15T05:15:50.075Z,3.35
2023-06-15T05:18:54.075Z,3.90
2023-06-15T05:22:00.415Z,3.50
2023-06-15T05:25:04.401Z,3.77
2023-06-15T05:28:07.412Z,3.30
2023-06-15T05:31:11.723Z,3.83
2023-06-15T05:34:14.665Z,3.33
2023-06-15T05:37:17.159Z,3.35
2023-06-15T05:40:19.840Z,3.17
2023-06-15T05:43:22.695Z,2.95
2023-06-15T05:46:26.741Z,3.15
2023-06-15T05:49:29.659Z,3.27
2023-06-15T05:52:32.209Z,3.05
2023-06-15T05:55:35.360Z,2.97
2023-06-15T06:01:42.410Z,3.50
2023-06-15T06:04:44.987Z,3.10
2023-06-15T06:07:48.031Z,3.25
2023-06-15T06:10:50.706Z,2.80
2023-06-15T06:13:53.368Z,2.80
2023-06-15T06:16:57.571Z,3.30
2023-06-15T06:20:00.238Z,3.07
2023-06-15T06:23:04.262Z,3.53
2023-06-15T06:26:06.830Z,3.00
2023-06-15T06:29:09.450Z,3.08
2023-06-15T06:32:13.416Z,2.92
2023-06-15T06:35:16.473Z,3.73
2023-06-15T06:38:19.361Z,3.00
2023-06-15T06:41:22.705Z,3.28
2023-06-15T06:44:25.607Z,3.20
2023-06-15T06:47:29.769Z,2.85
2023-06-15T06:50:32.492Z,3.70
2023-06-15T06:53:35.075Z,3.30
2023-06-15T06:56:37.826Z,3.05
2023-06-15T06:59:44.014Z,3.13
2023-06-15T07:02:48.534Z,3.57
2023-06-15T07:05:51.269Z,4.17
2023-06-15T07:08:54.121Z,3.70
2023-06-15T07:11:56.940Z,3.83
2023-06-15T07:14:59.617Z,2.78
2023-06-15T07:18:03.735Z,3.20
2023-06-15T07:21:06.461Z,3.03
2023-06-15T07:24:09.202Z,3.65
2023-06-15T07:27:11.867Z,2.85
2023-06-15T07:30:16.152Z,2.75
2023-06-15T07:33:20.754Z,3.17
2023-06-15T07:36:23.386Z,3.00
2023-06-15T07:39:26.057Z,2.80
2023-06-15T07:42:28.783Z,2.72
2023-06-15T07:45:31.565Z,3.08
2023-06-15T07:48:35.646Z,2.53
2023-06-15T07:51:47.586Z,3.37
2023-06-15T07:54:56.685Z,3.03
2023-06-15T07:57:59.516Z,3.40
2023-06-15T08:01:02.179Z,3.50
2023-06-15T08:04:07.037Z,3.65
2023-06-15T08:07:09.807Z,3.10
2023-06-15T08:10:13.050Z,3.05
2023-06-15T08:13:16.042Z,3.27
2023-06-15T08:19:22.423Z,2.93
2023-06-15T08:22:25.211Z,3.30
2023-06-15T08:25:27.786Z,3.45
2023-06-15T08:28:35.831Z,2.63
2023-06-15T08:31:44.201Z,2.90
2023-06-15T08:37:51.000Z,2.67
2023-06-15T08:40:53.620Z,3.20
2023-06-15T08:43:56.393Z,2.85
2023-06-15T08:46:59.196Z,2.85
2023-06-15T08:50:04.859Z,3.08
2023-06-15T08:53:08.525Z,3.50
2023-06-15T08:56:13.098Z,3.00
2023-06-15T08:59:15.834Z,3.07
2023-06-15T09:02:21.873Z,3.53
2023-06-15T09:05:27.343Z,2.77
2023-06-15T09:08:30.205Z,2.93
2023-06-15T09:11:41.017Z,2.90
2023-06-15T09:14:44.676Z,2.87
2023-06-15T09:17:47.463Z,2.93
2023-06-15T09:20:51.721Z,2.90
2023-06-15T09:23:54.373Z,2.83
2023-06-15T09:26:57.896Z,2.30
2023-06-15T09:30:04.763Z,2.90
2023-06-15T09:33:14.435Z,2.90
2023-06-15T09:36:18.624Z,2.83
2023-06-15T09:39:24.037Z,2.57
2023-06-15T09:42:28.752Z,2.60
2023-06-15T09:45:31.475Z,2.40
2023-06-15T09:48:34.494Z,2.30
2023-06-15T09:51:38.636Z,2.87
2023-06-15T09:54:41.639Z,2.30
2023-06-15T10:00:46.669Z,2.40
2023-06-15T10:03:54.206Z,2.50
2023-06-15T10:07:01.407Z,2.33
2023-06-15T10:10:04.720Z,3.03
2023-06-15T10:13:08.223Z,1.92
2023-06-15T10:16:11.805Z,1.80
2023-06-15T10:19:16.440Z,2.38
2023-06-15T10:22:21.023Z,2.70
2023-06-15T10:25:23.885Z,2.42
2023-06-15T10:28:27.129Z,2.67
2023-06-15T10:31:34.056Z,2.30
2023-06-15T10:34:43.191Z,2.38
2023-06-15T10:37:52.721Z,2.30
2023-06-15T10:40:55.373Z,2.38
2023-06-15T10:47:07.682Z,2.45
2023-06-15T10:50:17.161Z,2.10
2023-06-15T10:53:26.006Z,2.60
2023-06-15T10:56:29.657Z,2.50
2023-06-15T10:59:39.906Z,2.25
2023-06-15T11:03:00.514Z,1.85
2023-06-15T11:06:05.752Z,2.00
2023-06-15T11:09:15.208Z,2.60
2023-06-15T11:12:37.422Z,2.22
2023-06-15T11:15:41.786Z,2.38
2023-06-15T11:18:56.848Z,2.15
2023-06-15T11:22:01.452Z,2.40
2023-06-15T11:25:06.689Z,2.72
2023-06-15T11:28:17.176Z,2.22
2023-06-15T11:31:26.199Z,2.00
2023-06-15T11:34:28.967Z,1.83
2023-06-15T11:37:31.743Z,2.85
2023-06-15T11:40:35.941Z,2.30
2023-06-15T11:43:41.418Z,1.98
2023-06-15T11:46:44.004Z,2.22
2023-06-15T11:52:49.831Z,2.25
2023-06-15T11:55:54.191Z,2.00
2023-06-15T11:58:56.905Z,1.98
2023-06-15T12:01:59.950Z,1.85
2023-06-15T12:05:03.980Z,2.20
2023-06-15T12:08:07.850Z,2.33
2023-06-15T12:11:11.926Z,2.10
2023-06-15T12:14:17.656Z,2.28
2023-06-15T12:17:28.291Z,2.00
2023-06-15T12:20:31.006Z,2.35
2023-06-15T12:23:35.566Z,2.28
2023-06-15T12:26:39.625Z,2.50
2023-06-15T12:29:42.389Z,2.40
2023-06-15T12:32:45.943Z,2.55
2023-06-15T12:35:52.588Z,2.10
2023-06-15T12:38:55.273Z,2.10
2023-06-15T12:42:03.649Z,2.58
2023-06-15T12:45:07.758Z,2.17
2023-06-15T12:48:10.576Z,2.33
2023-06-15T12:51:13.362Z,2.45
2023-06-15T12:54:16.038Z,2.50
2023-06-15T12:57:20.237Z,2.42
2023-06-15T13:00:25.144Z,2.20
2023-06-15T13:03:28.795Z,2.50
2023-06-15T13:06:31.581Z,2.20
2023-06-15T13:09:34.245Z,2.05
2023-06-15T13:12:38.298Z,2.40
2023-06-15T13:15:41.961Z,2.00
2023-06-15T13:18:44.708Z,1.83
2023-06-15T13:21:47.711Z,2.40
2023-06-15T13:24:50.520Z,1.85
2023-06-15T13:27:54.512Z,1.90
2023-06-15T13:30:57.344Z,2.28
2023-06-15T13:34:00.174Z,2.00
2023-06-15T13:37:02.825Z,2.10
2023-06-15T13:40:07.720Z,2.13
2023-06-15T13:43:11.992Z,1.98
2023-06-15T13:46:14.673Z,2.22
2023-06-15T13:49:17.495Z,2.10
2023-06-15T13:52:20.400Z,2.00
2023-06-15T13:55:23.150Z,2.47
2023-06-15T13:58:27.158Z,2.28
2023-06-15T14:01:29.862Z,2.20
2023-06-15T14:04:33.273Z,1.90
2023-06-15T14:07:38.489Z,2.33
2023-06-15T14:10:41.150Z,2.00
2023-06-15T14:13:49.842Z,1.38
2023-06-15T14:16:53.593Z,1.73
2023-06-15T14:19:56.264Z,1.50
2023-06-15T14:22:58.963Z,1.67
2023-06-15T14:26:01.952Z,1.65
2023-06-15T14:29:05.941Z,1.85
2023-06-15T14:32:09.248Z,1.70
2023-06-15T14:35:12.674Z,1.38
2023-06-15T14:38:15.646Z,1.40
2023-06-15T14:41:18.369Z,1.77
2023-06-15T14:44:22.538Z,1.60
2023-06-15T14:47:25.590Z,1.63
2023-06-15T14:50:28.450Z,1.80
2023-06-15T14:53:31.490Z,1.60
2023-06-15T14:56:34.797Z,1.77
2023-06-15T14:59:38.914Z,1.48
2023-06-15T15:02:42.244Z,1.50
2023-06-15T15:05:45.217Z,1.52
2023-06-15T15:08:49.818Z,1.10
2023-06-15T15:11:52.403Z,1.50
2023-06-15T15:14:56.419Z,1.48
2023-06-15T15:17:59.214Z,1.67
2023-06-15T15:21:02.173Z,1.17
2023-06-15T15:24:05.871Z,1.33
2023-06-15T15:27:08.659Z,1.20
2023-06-15T15:30:13.458Z,1.33
2023-06-15T15:33:16.228Z,1.40
2023-06-15T15:36:18.884Z,1.40
2023-06-15T15:39:21.867Z,1.67
2023-06-15T15:42:24.864Z,1.52
2023-06-15T15:45:29.980Z,1.48
2023-06-15T15:48:33.052Z,1.60
2023-06-15T15:51:36.518Z,1.77
2023-06-15T15:54:39.362Z,1.63
2023-06-15T15:57:42.899Z,1.85
2023-06-15T16:00:46.872Z,1.63
2023-06-15T16:03:49.724Z,1.60
2023-06-15T16:06:52.478Z,1.60
2023-06-15T16:09:55.418Z,1.52
2023-06-15T16:12:58.198Z,1.60
2023-06-15T16:16:21.010Z,1.90
2023-06-15T16:19:24.953Z,1.48
2023-06-15T16:22:27.784Z,1.60
2023-06-15T16:25:30.399Z,1.60
2023-06-15T16:28:33.698Z,1.73
2023-06-15T16:31:37.806Z,1.33
2023-06-15T16:34:42.370Z,1.63
2023-06-15T16:37:45.715Z,1.70
2023-06-15T16:40:49.107Z,1.55
2023-06-15T16:43:52.162Z,1.70
2023-06-15T16:46:56.285Z,1.60
2023-06-15T16:49:59.990Z,1.40
2023-06-15T16:53:03.368Z,1.50
2023-06-15T16:56:06.921Z,1.80
2023-06-15T16:59:10.008Z,1.77
2023-06-15T17:02:15.491Z,2.10
2023-06-15T17:05:18.166Z,2.40
2023-06-15T17:08:20.954Z,1.90
2023-06-15T17:11:23.832Z,1.77
2023-06-15T17:14:27.294Z,1.77
2023-06-15T17:17:31.301Z,2.05
2023-06-15T17:20:34.370Z,1.98
2023-06-15T17:23:36.999Z,1.75
2023-06-15T17:26:41.173Z,1.70
2023-06-15T17:29:45.278Z,1.63
2023-06-15T17:32:49.276Z,1.80
2023-06-15T17:35:52.030Z,1.70
2023-06-15T17:38:54.713Z,1.92
2023-06-15T17:41:57.948Z,2.28
2023-06-15T17:45:02.040Z,2.05
2023-06-15T17:48:06.596Z,2.20
2023-06-15T17:51:09.224Z,2.08
2023-06-15T17:54:11.842Z,2.08
2023-06-15T17:57:15.007Z,1.92
2023-06-15T18:00:18.915Z,2.13
2023-06-15T18:03:23.160Z,2.47
2023-06-15T18:06:25.854Z,2.45
2023-06-15T18:09:28.345Z,2.08
2023-06-15T18:12:31.168Z,2.20
2023-06-15T18:18:39.369Z,2.20
2023-06-15T18:21:42.176Z,1.92
2023-06-15T18:24:44.773Z,2.50
2023-06-15T18:30:50.046Z,2.42
2023-06-15T18:33:55.110Z,2.70
2023-06-15T18:36:58.963Z,1.85
2023-06-15T18:40:01.965Z,2.35
2023-06-15T18:43:04.640Z,2.10
2023-06-15T18:49:14.403Z,2.30
2023-06-15T18:52:17.188Z,2.30
2023-06-15T18:55:20.471Z,2.10
2023-06-15T18:58:24.488Z,2.40
2023-06-15T19:01:27.248Z,2.38
2023-06-15T19:07:33.678Z,2.30
2023-06-15T19:10:36.466Z,2.38
2023-06-15T19:16:41.447Z,2.72
2023-06-15T19:19:46.322Z,2.40
2023-06-15T19:22:48.874Z,2.50
2023-06-15T19:25:52.219Z,2.65
2023-06-15T19:28:54.931Z,2.80
2023-06-15T19:31:57.804Z,2.60
2023-06-15T19:38:04.204Z,2.30
2023-06-15T19:41:07.121Z,2.75
2023-06-15T19:47:12.933Z,2.45
2023-06-15T19:50:17.497Z,2.90
2023-06-15T19:53:20.283Z,2.90
2023-06-15T19:56:23.488Z,3.10
2023-06-15T19:59:26.297Z,2.60
2023-06-15T20:02:28.945Z,2.90
2023-06-15T20:05:33.572Z,2.83
2023-06-15T20:08:37.462Z,2.30
2023-06-15T20:11:40.240Z,2.43
2023-06-15T20:14:43.122Z,3.42
2023-06-15T20:17:46.082Z,3.15
2023-06-15T20:23:52.863Z,2.80
2023-06-15T20:26:55.566Z,3.20
2023-06-15T20:29:58.244Z,2.97
2023-06-15T20:33:01.088Z,3.03
2023-06-15T20:36:06.644Z,3.42
2023-06-15T20:39:09.153Z,2.70
2023-06-15T20:42:12.613Z,2.88
2023-06-15T20:45:15.436Z,3.20
2023-06-15T20:48:18.197Z,3.40
2023-06-15T20:51:22.478Z,3.03
2023-06-15T20:54:25.624Z,2.83
2023-06-15T21:00:30.971Z,2.70
2023-06-15T21:03:34.126Z,2.45
2023-06-15T21:06:38.229Z,2.50
2023-06-15T21:09:42.274Z,2.90
2023-06-15T21:12:45.090Z,2.60
2023-06-15T21:15:48.161Z,2.50
2023-06-15T21:21:55.922Z,2.40
2023-06-15T21:24:58.783Z,2.73
2023-06-15T21:28:01.339Z,2.70
2023-06-15T21:31:04.360Z,2.88
2023-06-15T21:34:07.381Z,2.58
2023-06-15T21:37:11.812Z,2.97
2023-06-15T21:40:14.658Z,3.10
2023-06-15T21:43:17.733Z,3.17
2023-06-15T21:46:20.792Z,2.63
2023-06-15T21:49:23.637Z,2.95
2023-06-15T21:52:28.217Z,2.63
2023-06-15T21:55:31.381Z,2.87
2023-06-15T22:01:36.774Z,2.70
2023-06-15T22:04:40.043Z,3.38
2023-06-15T22:07:44.814Z,2.70
2023-06-15T22:10:48.044Z,3.00
2023-06-15T22:16:53.656Z,3.77
2023-06-15T22:19:58.459Z,3.03
2023-06-15T22:23:02.822Z,3.33
2023-06-15T22:26:06.074Z,3.27
2023-06-15T22:32:12.104Z,3.03
2023-06-15T22:35:14.855Z,2.90
2023-06-15T22:38:18.789Z,3.35
2023-06-15T22:41:22.796Z,2.90
2023-06-15T22:44:25.630Z,2.90
2023-06-15T22:47:29.602Z,2.65
2023-06-15T22:50:33.386Z,2.70
2023-06-15T22:53:37.628Z,2.87
2023-06-15T22:56:40.587Z,3.13
2023-06-15T22:59:44.691Z,3.35
2023-06-15T23:02:47.319Z,3.00
2023-06-15T23:05:50.269Z,3.10
2023-06-15T23:08:54.735Z,2.88
2023-06-15T23:11:57.854Z,3.03
2023-06-15T23:15:01.190Z,2.78
2023-06-15T23:18:05.349Z,2.80
2023-06-15T23:21:10.288Z,3.30
2023-06-15T23:24:14.383Z,3.20
2023-06-15T23:27:18.105Z,2.93
2023-06-15T23:30:21.813Z,3.13
2023-06-15T23:33:24.497Z,2.80
2023-06-15T23:36:27.361Z,2.70
2023-06-15T23:39:31.743Z,3.05
2023-06-15T23:42:34.437Z,2.87
2023-06-15T23:45:37.163Z,3.20
2023-06-15T23:48:40.146Z,2.80
2023-06-15T23:51:42.820Z,2.78
2023-06-15T23:54:46.858Z,2.90
2023-06-15T23:57:49.488Z,2.87
